Time;durP1;ratioP1;P1;durP2;ratioP2;P2;SDS_P1;SDS_P2;PMS_P1;PMS_P2;Temp;Humidity;BMP_temperature;BMP_pressure;BME280_temperature;BME280_humidity;BME280_pressure;Samples;Min_cycle;Max_cycle;Signal;HPM_P1;HPM_P2
2023/04/10 00:00:56;;;;;;;3.03;2.55;;;11.80;99.90;;;;;;4992595;28;20062;-78
2023/04/10 00:03:23;;;;;;;2.58;2.17;;;11.80;99.90;;;;;;4994621;28;20733;-78
2023/04/10 00:05:53;;;;;;;3.63;3.08;;;11.90;99.90;;;;;;4998204;28;20046;-78
2023/04/10 00:08:22;;;;;;;3.05;2.58;;;11.80;99.90;;;;;;4978694;28;20049;-78
2023/04/10 00:10:48;;;;;;;3.83;2.63;;;11.80;99.90;;;;;;5011592;28;20405;-78
2023/04/10 00:13:15;;;;;;;3.50;3.17;;;11.80;99.90;;;;;;4997855;28;20049;-78
2023/04/10 00:15:42;;;;;;;3.47;2.75;;;11.80;99.90;;;;;;4999089;28;20049;-78
2023/04/10 00:18:09;;;;;;;2.83;2.42;;;11.80;99.90;;;;;;4981226;28;20049;-77
2023/04/10 00:20:36;;;;;;;2.35;1.95;;;11.80;99.90;;;;;;4997898;28;20096;-78
2023/04/10 00:23:02;;;;;;;3.15;2.33;;;11.80;99.90;;;;;;4980194;28;20050;-78
2023/04/10 00:25:29;;;;;;;2.97;2.55;;;11.80;99.90;;;;;;4997475;28;20129;-78
2023/04/10 00:27:56;;;;;;;3.63;2.80;;;11.80;99.90;;;;;;4995348;28;20133;-78
2023/04/10 00:30:23;;;;;;;3.28;2.50;;;11.80;99.90;;;;;;4974489;28;20363;-78
2023/04/10 00:32:50;;;;;;;2.88;2.30;;;11.80;99.90;;;;;;4994798;28;20082;-78
2023/04/10 00:35:17;;;;;;;2.88;2.28;;;11.80;99.90;;;;;;4998467;28;20619;-78
2023/04/10 00:37:44;;;;;;;3.63;3.17;;;11.80;99.90;;;;;;4997038;28;20764;-78
2023/04/10 00:40:11;;;;;;;3.35;2.78;;;11.80;99.90;;;;;;4998695;28;20046;-78
2023/04/10 00:42:38;;;;;;;3.92;2.80;;;11.90;99.90;;;;;;4996124;28;20093;-77
2023/04/10 00:45:06;;;;;;;2.60;2.33;;;11.90;99.90;;;;;;4996278;28;20579;-78
2023/04/10 00:47:33;;;;;;;3.33;2.78;;;12.00;99.90;;;;;;4996772;28;20077;-77
2023/04/10 00:50:00;;;;;;;2.83;2.38;;;12.00;99.90;;;;;;4996851;28;20054;-78
2023/04/10 00:52:27;;;;;;;2.80;2.42;;;12.10;99.90;;;;;;4979826;28;20144;-78
2023/04/10 00:54:54;;;;;;;3.20;2.42;;;12.10;99.90;;;;;;4996535;28;20061;-78
2023/04/10 00:57:21;;;;;;;2.90;2.20;;;12.20;99.90;;;;;;4981957;28;20474;-78
2023/04/10 00:59:49;;;;;;;3.08;2.50;;;12.20;99.90;;;;;;4997068;28;20053;-78
2023/04/10 01:02:16;;;;;;;2.97;2.42;;;12.20;99.90;;;;;;4995263;28;20050;-78
2023/04/10 01:04:44;;;;;;;3.38;2.28;;;12.30;99.90;;;;;;4981058;28;20057;-78
2023/04/10 01:07:46;;;;;;;2.83;2.22;;;12.30;99.90;;;;;;4996266;28;20137;-78
2023/04/10 01:10:19;;;;;;;3.38;2.67;;;12.30;99.90;;;;;;4984200;28;20121;-79
2023/04/10 01:12:50;;;;;;;3.42;2.60;;;12.40;99.90;;;;;;4996827;28;20052;-77
2023/04/10 01:15:18;;;;;;;3.15;2.58;;;12.40;99.90;;;;;;4997425;28;20049;-78
2023/04/10 01:17:56;;;;;;;2.47;2.13;;;12.40;99.90;;;;;;4981529;28;20489;-78
2023/04/10 01:20:24;;;;;;;2.60;2.20;;;12.50;99.90;;;;;;4981557;28;20042;-79
2023/04/10 01:23:16;;;;;;;3.38;2.22;;;12.50;99.90;;;;;;4980419;28;20049;-80
2023/04/10 01:25:58;;;;;;;3.60;2.88;;;12.50;99.90;;;;;;4997557;28;20080;-80
2023/04/10 01:29:00;;;;;;;3.40;2.70;;;12.50;99.90;;;;;;4979739;28;20144;-79
2023/04/10 01:31:36;;;;;;;3.13;2.65;;;12.60;99.90;;;;;;4996846;28;20045;-80
2023/04/10 01:34:15;;;;;;;3.20;2.15;;;12.60;99.90;;;;;;4997160;28;20101;-79
2023/04/10 01:36:48;;;;;;;2.53;2.22;;;12.60;99.90;;;;;;4999888;28;20049;-80
2023/04/10 01:39:18;;;;;;;3.90;2.55;;;12.60;99.90;;;;;;5001422;28;20056;-80
2023/04/10 01:41:44;;;;;;;4.28;2.97;;;12.60;99.90;;;;;;4999494;28;20496;-80
2023/04/10 01:44:13;;;;;;;3.05;2.72;;;12.60;99.90;;;;;;4984560;28;21076;-80
2023/04/10 01:46:42;;;;;;;3.50;2.75;;;12.50;99.90;;;;;;4985284;28;20505;-79
2023/04/10 01:49:09;;;;;;;3.42;3.03;;;12.60;99.90;;;;;;5001051;28;20192;-80
2023/04/10 01:51:36;;;;;;;2.97;2.67;;;12.50;99.90;;;;;;5000289;28;20057;-79
2023/04/10 01:54:03;;;;;;;2.75;2.40;;;12.60;99.90;;;;;;5000821;28;20037;-80
2023/04/10 01:56:32;;;;;;;2.97;2.13;;;12.60;99.90;;;;;;4999292;28;20061;-80
2023/04/10 01:58:59;;;;;;;3.22;2.35;;;12.60;99.90;;;;;;4984363;28;20045;-80
2023/04/10 02:01:26;;;;;;;3.53;2.80;;;12.60;99.90;;;;;;5001770;28;20077;-80
2023/04/10 02:03:57;;;;;;;3.63;2.70;;;12.50;99.90;;;;;;4984600;28;20046;-80
2023/04/10 02:06:30;;;;;;;2.95;2.40;;;12.60;99.90;;;;;;5001059;28;20232;-80
2023/04/10 02:09:08;;;;;;;2.47;2.03;;;12.50;99.90;;;;;;5000545;28;20089;-79
2023/04/10 02:11:43;;;;;;;4.68;2.25;;;12.50;99.90;;;;;;4999494;28;20066;-79
2023/04/10 02:14:10;;;;;;;2.50;2.30;;;12.50;99.90;;;;;;4997695;28;20129;-79
2023/04/10 02:16:37;;;;;;;3.22;2.47;;;12.50;99.90;;;;;;4982846;28;20085;-80
2023/04/10 02:19:04;;;;;;;2.83;2.33;;;12.50;99.90;;;;;;4998395;28;20092;-79
2023/04/10 02:21:32;;;;;;;2.47;2.10;;;12.50;99.90;;;;;;4984261;28;20370;-79
2023/04/10 02:23:59;;;;;;;2.15;1.88;;;12.50;99.90;;;;;;4999489;28;20097;-79
2023/04/10 02:26:26;;;;;;;2.50;1.80;;;12.50;99.90;;;;;;5001068;28;20537;-80
2023/04/10 02:28:53;;;;;;;2.80;2.17;;;12.50;99.90;;;;;;5000275;28;20497;-79
2023/04/10 02:31:20;;;;;;;2.40;1.77;;;12.50;99.90;;;;;;4985053;28;20180;-78
2023/04/10 02:33:47;;;;;;;2.00;1.73;;;12.50;99.90;;;;;;5000733;28;20125;-80
2023/04/10 02:36:14;;;;;;;2.85;2.25;;;12.40;99.90;;;;;;4999836;28;20474;-79
2023/04/10 02:38:41;;;;;;;2.00;1.80;;;12.50;99.90;;;;;;4993085;28;20486;-79
2023/04/10 02:41:08;;;;;;;3.08;2.28;;;12.40;99.90;;;;;;4982780;28;20511;-80
2023/04/10 02:43:34;;;;;;;2.40;2.00;;;12.30;99.90;;;;;;5000381;28;20152;-80
2023/04/10 02:46:01;;;;;;;2.17;1.70;;;12.30;99.90;;;;;;5001245;28;20201;-79
2023/04/10 02:48:28;;;;;;;4.55;2.10;;;12.30;99.90;;;;;;5000369;28;20133;-80
2023/04/10 02:50:56;;;;;;;2.10;1.70;;;12.20;99.90;;;;;;4999302;28;20176;-80
2023/04/10 02:53:24;;;;;;;2.53;1.92;;;12.20;99.90;;;;;;5003140;28;20132;-80
2023/04/10 02:55:53;;;;;;;1.95;1.60;;;12.20;99.90;;;;;;5003228;28;20553;-80
2023/04/10 02:58:20;;;;;;;1.98;1.60;;;12.20;99.90;;;;;;5002534;28;20054;-79
2023/04/10 03:00:48;;;;;;;2.30;1.85;;;12.10;99.90;;;;;;5004155;28;20354;-79
2023/04/10 03:03:18;;;;;;;2.42;1.45;;;12.10;99.90;;;;;;5002160;28;20153;-80
2023/04/10 03:05:45;;;;;;;2.00;1.70;;;12.10;99.90;;;;;;4986935;28;20441;-80
2023/04/10 03:08:14;;;;;;;2.58;1.73;;;12.10;99.90;;;;;;4986556;28;20707;-80
2023/04/10 03:10:43;;;;;;;2.00;1.50;;;12.00;99.90;;;;;;4983944;28;20382;-79
2023/04/10 03:13:12;;;;;;;2.17;1.70;;;12.00;99.90;;;;;;4985099;28;20596;-80
2023/04/10 03:15:39;;;;;;;2.13;1.60;;;12.00;99.90;;;;;;4988322;28;20049;-80
2023/04/10 03:18:06;;;;;;;2.67;1.63;;;12.00;99.90;;;;;;5003486;28;20054;-80
2023/04/10 03:20:32;;;;;;;1.83;1.50;;;12.00;99.90;;;;;;4985899;28;20050;-80
2023/04/10 03:23:00;;;;;;;2.08;1.63;;;11.90;99.90;;;;;;4985755;28;20041;-80
2023/04/10 03:25:27;;;;;;;1.45;1.10;;;11.90;99.90;;;;;;4986718;28;20068;-80
2023/04/10 03:27:54;;;;;;;2.03;1.50;;;11.90;99.90;;;;;;4987440;28;20049;-80
2023/04/10 03:30:21;;;;;;;1.55;1.30;;;11.90;99.90;;;;;;5003451;28;20049;-80
2023/04/10 03:32:48;;;;;;;2.08;1.40;;;11.90;99.90;;;;;;5001341;28;20141;-80
2023/04/10 03:35:15;;;;;;;1.83;1.40;;;11.90;99.90;;;;;;5001491;28;20129;-80
2023/04/10 03:37:42;;;;;;;1.88;1.48;;;11.90;99.90;;;;;;5001044;28;20127;-80
2023/04/10 03:40:09;;;;;;;1.30;1.20;;;11.90;99.90;;;;;;5003717;28;20532;-80
2023/04/10 03:42:36;;;;;;;1.65;1.20;;;11.80;99.90;;;;;;4996915;28;20137;-80
2023/04/10 03:45:05;;;;;;;1.70;1.10;;;11.80;99.90;;;;;;5004451;28;20586;-80
2023/04/10 03:47:32;;;;;;;1.67;1.27;;;11.80;99.90;;;;;;5003341;28;20061;-79
2023/04/10 03:49:59;;;;;;;1.27;1.10;;;11.90;99.90;;;;;;4987592;28;20053;-79
2023/04/10 03:52:26;;;;;;;1.70;1.23;;;11.90;99.90;;;;;;5000603;28;20409;-80
2023/04/10 03:54:54;;;;;;;1.58;1.15;;;11.90;99.90;;;;;;5003254;28;20061;-80
2023/04/10 03:57:21;;;;;;;1.80;1.25;;;11.80;99.90;;;;;;4987266;28;20414;-79
2023/04/10 03:59:48;;;;;;;1.58;1.33;;;11.90;99.90;;;;;;5000658;28;20038;-80
2023/04/10 04:02:14;;;;;;;1.77;1.27;;;11.80;99.90;;;;;;5000682;28;20247;-79
2023/04/10 04:04:41;;;;;;;1.40;1.20;;;11.80;99.90;;;;;;5002694;28;20041;-79
2023/04/10 04:07:09;;;;;;;1.02;0.88;;;11.80;99.90;;;;;;4985572;28;20205;-80
2023/04/10 04:09:36;;;;;;;1.65;1.00;;;11.80;99.90;;;;;;4987140;28;20074;-80
2023/04/10 04:12:03;;;;;;;0.95;0.70;;;11.80;99.90;;;;;;4999416;28;20046;-79
2023/04/10 04:14:30;;;;;;;1.17;0.90;;;11.80;99.90;;;;;;5000739;28;20522;-79
2023/04/10 04:16:56;;;;;;;1.42;1.00;;;11.80;99.90;;;;;;5001342;28;20509;-80
2023/04/10 04:19:24;;;;;;;1.20;1.00;;;11.70;99.90;;;;;;5000182;28;20120;-80
2023/04/10 04:21:51;;;;;;;1.95;1.48;;;11.70;99.90;;;;;;5000573;28;20100;-80
2023/04/10 04:24:17;;;;;;;1.42;1.00;;;11.60;99.90;;;;;;5002402;28;20050;-80
2023/04/10 04:26:44;;;;;;;1.20;0.95;;;11.50;99.90;;;;;;5002280;28;20053;-80
2023/04/10 04:29:12;;;;;;;1.27;0.95;;;11.50;99.90;;;;;;5000810;28;20047;-80
2023/04/10 04:31:39;;;;;;;1.92;1.00;;;11.40;99.90;;;;;;5003665;28;20057;-80
2023/04/10 04:34:06;;;;;;;1.83;1.00;;;11.50;99.90;;;;;;4981531;28;20170;-80
2023/04/10 04:36:32;;;;;;;0.95;0.80;;;11.40;99.90;;;;;;5001176;28;20391;-80
2023/04/10 04:38:59;;;;;;;1.23;0.70;;;11.40;99.90;;;;;;4986499;28;20523;-80
2023/04/10 04:41:29;;;;;;;0.80;0.80;;;11.30;99.90;;;;;;5002302;28;20045;-79
2023/04/10 04:43:56;;;;;;;1.33;0.95;;;11.40;99.90;;;;;;4985978;28;20564;-78
2023/04/10 04:46:23;;;;;;;1.00;0.85;;;11.30;99.90;;;;;;4995962;28;20084;-78
2023/04/10 04:48:50;;;;;;;1.35;0.93;;;11.30;99.90;;;;;;4985900;28;20159;-79
2023/04/10 04:51:16;;;;;;;1.25;0.93;;;11.30;99.90;;;;;;4985990;28;20046;-78
2023/04/10 04:53:43;;;;;;;1.20;1.10;;;11.20;99.90;;;;;;5002206;28;20047;-78
2023/04/10 04:56:10;;;;;;;1.50;0.90;;;11.20;99.90;;;;;;5005776;28;20048;-79
2023/04/10 04:58:37;;;;;;;1.70;0.90;;;11.20;99.90;;;;;;4988208;28;20469;-79
2023/04/10 05:01:04;;;;;;;1.08;0.98;;;11.20;99.90;;;;;;4987887;28;20063;-79
2023/04/10 05:03:31;;;;;;;1.08;0.90;;;11.20;99.90;;;;;;4993416;28;20046;-79
2023/04/10 05:05:58;;;;;;;0.70;0.70;;;11.20;99.90;;;;;;4978679;28;20042;-79
2023/04/10 05:08:25;;;;;;;1.40;1.10;;;11.20;99.90;;;;;;4976955;28;20062;-79
2023/04/10 05:10:52;;;;;;;1.17;0.82;;;11.20;99.90;;;;;;4982105;28;20050;-80
2023/04/10 05:13:19;;;;;;;0.90;0.90;;;11.10;99.90;;;;;;4980336;28;20054;-79
2023/04/10 05:15:46;;;;;;;1.02;0.80;;;11.10;99.90;;;;;;4982920;28;20409;-79
2023/04/10 05:18:13;;;;;;;1.20;1.10;;;11.10;99.90;;;;;;5002332;28;20163;-80
2023/04/10 05:20:40;;;;;;;0.80;0.80;;;11.10;99.90;;;;;;4996592;28;20364;-79
2023/04/10 05:23:07;;;;;;;1.00;0.90;;;11.10;99.90;;;;;;4987740;28;20054;-80
2023/04/10 05:25:34;;;;;;;1.08;0.88;;;11.10;99.90;;;;;;4996339;28;20056;-80
2023/04/10 05:28:01;;;;;;;0.85;0.85;;;11.10;99.90;;;;;;4986403;28;20123;-79
2023/04/10 05:30:28;;;;;;;0.85;0.70;;;11.10;99.90;;;;;;5001968;28;20045;-79
2023/04/10 05:32:55;;;;;;;0.60;0.60;;;11.10;99.90;;;;;;4996403;28;20136;-78
2023/04/10 05:35:22;;;;;;;0.63;0.63;;;11.10;99.90;;;;;;4997460;28;20521;-80
2023/04/10 05:37:49;;;;;;;0.82;0.70;;;11.10;99.90;;;;;;5000279;28;20138;-80
2023/04/10 05:40:16;;;;;;;0.63;0.60;;;11.10;99.90;;;;;;5001227;28;20072;-79
2023/04/10 05:42:43;;;;;;;0.63;0.52;;;11.20;99.90;;;;;;4998357;28;20081;-79
2023/04/10 05:45:13;;;;;;;0.95;0.60;;;11.20;99.90;;;;;;4995182;28;20050;-81
2023/04/10 05:47:41;;;;;;;0.68;0.68;;;11.30;99.90;;;;;;4991381;28;20048;-80
2023/04/10 05:50:08;;;;;;;0.60;0.60;;;11.30;99.90;;;;;;4980961;28;20133;-80
2023/04/10 05:52:35;;;;;;;1.05;0.35;;;11.30;99.90;;;;;;4975525;28;20435;-80
2023/04/10 05:55:02;;;;;;;0.90;0.55;;;11.30;99.90;;;;;;4998496;28;20108;-80
2023/04/10 05:57:29;;;;;;;0.77;0.60;;;11.30;99.90;;;;;;4999963;28;20072;-80
2023/04/10 05:59:56;;;;;;;0.40;0.40;;;11.40;99.90;;;;;;4996382;28;20042;-79
2023/04/10 06:02:23;;;;;;;0.80;0.60;;;11.40;99.90;;;;;;5000348;28;20097;-80
2023/04/10 06:04:51;;;;;;;0.70;0.50;;;11.40;99.90;;;;;;4979725;28;20060;-80
2023/04/10 06:07:18;;;;;;;0.65;0.60;;;11.40;99.90;;;;;;4994840;28;20050;-80
2023/04/10 06:09:45;;;;;;;0.40;0.40;;;11.40;99.90;;;;;;4976451;28;20129;-80
2023/04/10 06:12:11;;;;;;;1.00;0.80;;;11.50;99.90;;;;;;5007081;28;20060;-80
2023/04/10 06:14:38;;;;;;;0.40;0.40;;;11.50;99.90;;;;;;4993699;28;20052;-79
2023/04/10 06:17:05;;;;;;;1.00;0.88;;;11.50;99.90;;;;;;4999261;28;20137;-80
2023/04/10 06:19:32;;;;;;;0.70;0.70;;;11.50;99.90;;;;;;4982154;28;20077;-80
2023/04/10 06:21:59;;;;;;;0.98;0.75;;;11.50;99.90;;;;;;4979379;28;20045;-79
2023/04/10 06:24:26;;;;;;;1.25;0.60;;;11.60;99.90;;;;;;4979802;28;20061;-80
2023/04/10 06:26:53;;;;;;;0.90;0.77;;;11.50;99.90;;;;;;4975350;28;20058;-79
2023/04/10 06:29:20;;;;;;;0.77;0.70;;;11.60;99.90;;;;;;4997676;28;20057;-81
2023/04/10 06:31:47;;;;;;;0.95;0.85;;;11.60;99.90;;;;;;4995474;28;20065;-81
2023/04/10 06:34:14;;;;;;;1.05;0.70;;;11.60;99.90;;;;;;4985524;28;20576;-81
2023/04/10 06:36:41;;;;;;;0.95;0.77;;;11.50;99.90;;;;;;4995684;28;20119;-83
2023/04/10 06:39:08;;;;;;;1.58;1.05;;;11.50;99.90;;;;;;5000438;28;20569;-83
2023/04/10 06:41:35;;;;;;;1.17;1.08;;;11.50;99.90;;;;;;5004011;28;20156;-84
2023/04/10 06:44:02;;;;;;;1.15;0.80;;;11.50;99.90;;;;;;4980228;28;20703;-85
2023/04/10 06:46:29;;;;;;;0.93;0.63;;;11.60;99.90;;;;;;4987205;28;20058;-85
2023/04/10 06:49:01;;;;;;;1.02;0.82;;;11.60;99.90;;;;;;5006851;28;20082;-83
2023/04/10 06:51:28;;;;;;;1.50;1.25;;;11.60;99.90;;;;;;4989945;28;20113;-84
2023/04/10 06:53:55;;;;;;;1.63;1.27;;;11.60;99.90;;;;;;5005647;28;20517;-85
2023/04/10 06:56:23;;;;;;;1.30;1.00;;;11.60;99.90;;;;;;4998783;28;20097;-85
2023/04/10 06:58:50;;;;;;;1.25;1.10;;;11.60;99.90;;;;;;5005649;28;20103;-84
2023/04/10 07:01:17;;;;;;;0.88;0.77;;;11.60;99.90;;;;;;5004546;28;20050;-85
2023/04/10 07:03:44;;;;;;;0.90;0.85;;;11.60;99.90;;;;;;5000787;28;20045;-86
2023/04/10 07:06:11;;;;;;;1.10;0.95;;;11.60;99.90;;;;;;4988145;28;20052;-84
2023/04/10 07:08:38;;;;;;;1.15;0.82;;;11.60;99.90;;;;;;5002563;28;20050;-86
2023/04/10 07:11:05;;;;;;;1.17;0.90;;;11.60;99.90;;;;;;5004271;28;20264;-85
2023/04/10 07:13:34;;;;;;;0.65;0.65;;;11.60;99.90;;;;;;4988486;28;20058;-87
2023/04/10 07:16:01;;;;;;;1.02;0.90;;;11.60;99.90;;;;;;5001966;28;20050;-86
2023/04/10 07:18:29;;;;;;;1.00;0.90;;;11.60;99.90;;;;;;5003642;28;20120;-85
2023/04/10 07:20:56;;;;;;;1.13;0.90;;;11.60;99.90;;;;;;5004765;28;20057;-85
2023/04/10 07:23:22;;;;;;;0.60;0.60;;;11.70;99.90;;;;;;4987726;28;20165;-85
2023/04/10 07:25:50;;;;;;;0.70;0.70;;;11.70;99.90;;;;;;4986426;28;20120;-85
2023/04/10 07:28:18;;;;;;;1.05;0.77;;;11.70;99.90;;;;;;4984810;28;20602;-86
2023/04/10 07:30:45;;;;;;;0.88;0.80;;;11.70;99.90;;;;;;4980145;28;20065;-85
2023/04/10 07:33:13;;;;;;;1.40;0.80;;;11.70;99.90;;;;;;5001219;28;20042;-86
2023/04/10 07:35:41;;;;;;;1.20;1.00;;;11.70;99.90;;;;;;4984796;28;20050;-85
2023/04/10 07:38:08;;;;;;;0.88;0.75;;;11.60;99.90;;;;;;4993732;28;20228;-86
2023/04/10 07:40:35;;;;;;;0.88;0.70;;;11.70;99.90;;;;;;4982295;28;20060;-86
2023/04/10 07:43:02;;;;;;;1.15;0.88;;;11.70;99.90;;;;;;4998919;28;20850;-86
2023/04/10 07:45:30;;;;;;;0.73;0.63;;;11.70;99.90;;;;;;5004459;28;20046;-87
2023/04/10 07:47:58;;;;;;;1.15;1.00;;;11.70;99.90;;;;;;4986900;28;20624;-88
2023/04/10 07:50:25;;;;;;;2.10;1.08;;;11.70;99.90;;;;;;4982741;28;20046;-88
2023/04/10 07:52:52;;;;;;;0.70;0.70;;;11.70;99.90;;;;;;4983329;28;20057;-88
2023/04/10 07:55:19;;;;;;;0.75;0.73;;;11.70;99.90;;;;;;5004958;28;20537;-90
2023/04/10 07:57:47;;;;;;;0.68;0.68;;;11.70;99.90;;;;;;4985896;28;20053;-85
2023/04/10 08:00:14;;;;;;;0.80;0.70;;;11.70;99.90;;;;;;4987450;28;20797;-87
2023/04/10 08:02:43;;;;;;;0.77;0.77;;;11.70;99.90;;;;;;4999990;28;20500;-87
2023/04/10 08:05:11;;;;;;;0.77;0.70;;;11.70;99.90;;;;;;4988116;28;20512;-87
2023/04/10 08:07:38;;;;;;;0.93;0.82;;;11.70;99.90;;;;;;5004810;28;20063;-86
2023/04/10 08:10:05;;;;;;;0.90;0.70;;;11.70;99.90;;;;;;5007536;28;20049;-91
2023/04/10 08:12:33;;;;;;;0.82;0.70;;;11.70;99.90;;;;;;4992448;28;20595;-85
2023/04/10 08:15:00;;;;;;;0.80;0.80;;;11.70;99.90;;;;;;4976987;28;21677;-85
2023/04/10 08:17:27;;;;;;;0.77;0.70;;;11.70;99.90;;;;;;4977734;28;20050;-84
2023/04/10 08:19:55;;;;;;;0.80;0.73;;;11.80;99.90;;;;;;4995175;28;20469;-84
2023/04/10 08:22:22;;;;;;;1.40;0.85;;;11.80;99.90;;;;;;4978569;28;20083;-82
2023/04/10 08:24:49;;;;;;;1.55;0.82;;;11.90;99.90;;;;;;4980650;28;20070;-83
2023/04/10 08:27:16;;;;;;;0.93;0.68;;;11.90;99.90;;;;;;4991084;28;20086;-83
2023/04/10 08:29:43;;;;;;;0.70;0.70;;;11.90;99.90;;;;;;4978331;28;20088;-85
2023/04/10 08:32:10;;;;;;;1.45;0.90;;;11.90;99.90;;;;;;4993502;28;20065;-84
2023/04/10 08:34:37;;;;;;;0.77;0.70;;;11.90;99.90;;;;;;4965312;28;20061;-79
2023/04/10 08:37:05;;;;;;;0.80;0.80;;;11.90;99.90;;;;;;4990418;28;20484;-80
2023/04/10 08:39:36;;;;;;;1.00;0.75;;;11.90;99.90;;;;;;4976098;28;20054;-79
2023/04/10 08:42:04;;;;;;;0.75;0.60;;;12.00;99.90;;;;;;4991330;28;20073;-84
2023/04/10 08:44:31;;;;;;;0.90;0.60;;;12.00;99.90;;;;;;4961092;28;20053;-84
2023/04/10 08:46:59;;;;;;;0.70;0.68;;;12.00;99.90;;;;;;4980523;28;20270;-84
2023/04/10 08:49:37;;;;;;;0.77;0.52;;;12.00;99.90;;;;;;4984772;28;20224;-84
2023/04/10 08:52:07;;;;;;;0.63;0.50;;;12.10;99.90;;;;;;4973786;28;20655;-84
2023/04/10 08:54:37;;;;;;;0.73;0.50;;;12.10;99.90;;;;;;4963437;28;20061;-84
2023/04/10 08:57:04;;;;;;;0.63;0.40;;;12.10;99.90;;;;;;4971687;28;20456;-83
2023/04/10 08:59:34;;;;;;;1.02;0.55;;;12.10;99.90;;;;;;4975306;28;20064;-83
2023/04/10 09:02:05;;;;;;;0.85;0.68;;;12.10;99.90;;;;;;4981852;28;20104;-85
2023/04/10 09:04:33;;;;;;;0.70;0.70;;;12.00;99.90;;;;;;4976369;28;20516;-84
2023/04/10 09:07:01;;;;;;;0.75;0.75;;;12.00;99.90;;;;;;4977101;28;20058;-84
2023/04/10 09:09:31;;;;;;;0.52;0.52;;;12.00;99.90;;;;;;4971218;28;20172;-86
2023/04/10 09:11:59;;;;;;;1.30;0.60;;;12.00;99.90;;;;;;4983596;28;20058;-85
2023/04/10 09:14:30;;;;;;;0.50;0.50;;;12.00;99.90;;;;;;4982459;28;22899;-87
2023/04/10 09:17:20;;;;;;;0.98;0.65;;;12.00;99.90;;;;;;4979232;28;20049;-84
2023/04/10 09:19:51;;;;;;;1.05;0.52;;;12.10;99.90;;;;;;4977848;28;20147;-84
2023/04/10 09:22:29;;;;;;;0.50;0.50;;;12.10;99.90;;;;;;4973531;28;20060;-83
2023/04/10 09:24:58;;;;;;;0.52;0.40;;;12.10;99.90;;;;;;4960826;28;20160;-81
2023/04/10 09:27:36;;;;;;;0.40;0.40;;;12.10;99.90;;;;;;4997880;28;20600;-80
2023/04/10 09:30:03;;;;;;;0.40;0.40;;;12.10;99.90;;;;;;4964114;28;20420;-81
2023/04/10 09:32:41;;;;;;;0.40;0.30;;;12.20;99.90;;;;;;4972893;28;20053;-82
2023/04/10 09:35:12;;;;;;;0.30;0.30;;;12.30;99.90;;;;;;4993463;28;20430;-82
2023/04/10 09:37:41;;;;;;;0.32;0.32;;;12.40;99.90;;;;;;4994933;28;20053;-88
2023/04/10 09:40:24;;;;;;;0.50;0.50;;;12.40;99.90;;;;;;5002104;28;20053;-90
2023/04/10 09:42:51;;;;;;;0.80;0.65;;;12.40;99.90;;;;;;4989624;28;20856;-86
2023/04/10 09:45:21;;;;;;;0.60;0.60;;;12.40;99.90;;;;;;4981032;28;20221;-95
2023/04/10 09:48:05;;;;;;;0.75;0.60;;;12.40;99.90;;;;;;5000319;28;20058;-95
2023/04/10 09:50:36;;;;;;;0.32;0.30;;;12.50;99.90;;;;;;4999796;28;20034;-95
2023/04/10 09:53:07;;;;;;;;;;;12.50;99.90;;;;;;4974463;28;20133;-88
2023/04/10 09:55:39;;;;;;;0.60;0.60;;;12.40;99.90;;;;;;5004303;28;19922;-88
2023/04/10 09:58:08;;;;;;;0.68;0.47;;;12.40;99.90;;;;;;4986816;28;20053;-88
2023/04/10 10:00:40;;;;;;;0.52;0.47;;;12.30;99.90;;;;;;4989308;28;20157;-89
2023/04/10 10:03:26;;;;;;;0.60;0.40;;;12.20;99.90;;;;;;5006053;28;20060;-88
2023/04/10 10:05:53;;;;;;;0.35;0.35;;;12.20;99.90;;;;;;4988155;28;20133;-89
2023/04/10 10:08:20;;;;;;;0.30;0.30;;;12.20;99.90;;;;;;4981498;28;20046;-95
2023/04/10 10:10:57;;;;;;;0.40;0.40;;;12.20;99.90;;;;;;5022231;28;20046;-94
2023/04/10 10:13:51;;;;;;;0.20;0.20;;;12.30;99.90;;;;;;5011665;28;20052;-95
2023/04/10 10:16:33;;;;;;;0.30;0.30;;;12.30;99.90;;;;;;4993210;28;20644;-84
2023/04/10 10:19:16;;;;;;;0.43;0.38;;;12.30;99.90;;;;;;4993072;28;20771;-83
2023/04/10 10:21:43;;;;;;;0.57;0.57;;;12.30;99.90;;;;;;4993557;28;20125;-83
2023/04/10 10:24:11;;;;;;;0.45;0.40;;;12.30;99.90;;;;;;4987545;28;20074;-83
2023/04/10 10:26:38;;;;;;;0.57;0.50;;;12.30;99.90;;;;;;4989285;28;20050;-83
2023/04/10 10:29:09;;;;;;;0.47;0.47;;;12.30;99.90;;;;;;4998139;28;20086;-81
2023/04/10 10:31:37;;;;;;;0.25;0.25;;;12.30;99.90;;;;;;4984157;28;20061;-81
2023/04/10 10:34:06;;;;;;;0.63;0.32;;;12.40;99.90;;;;;;5000241;28;20131;-82
2023/04/10 10:36:34;;;;;;;0.22;0.22;;;12.40;99.90;;;;;;4982739;28;20156;-76
2023/04/10 10:39:04;;;;;;;0.20;0.20;;;12.40;99.90;;;;;;5001556;28;20136;-77
2023/04/10 10:41:39;;;;;;;0.40;0.40;;;12.40;99.90;;;;;;5001762;28;20514;-76
2023/04/10 10:44:20;;;;;;;0.32;0.32;;;12.50;99.90;;;;;;4998506;28;20141;-77
2023/04/10 10:46:57;;;;;;;0.30;0.30;;;12.50;99.90;;;;;;5002616;28;20387;-76
2023/04/10 10:50:09;;;;;;;0.40;0.40;;;12.60;99.90;;;;;;4980986;28;20090;-78
2023/04/10 10:52:48;;;;;;;0.32;0.32;;;12.60;99.90;;;;;;4991362;28;20512;-78
2023/04/10 10:55:21;;;;;;;0.40;0.40;;;12.70;99.90;;;;;;4997662;28;20054;-78
2023/04/10 10:57:49;;;;;;;0.30;0.30;;;12.70;99.90;;;;;;4990176;28;20046;-78
2023/04/10 11:00:20;;;;;;;0.65;0.50;;;12.70;99.90;;;;;;4994118;28;20149;-78
2023/04/10 11:03:19;;;;;;;0.75;0.60;;;12.70;99.90;;;;;;4984760;28;20112;-78
2023/04/10 11:05:55;;;;;;;0.80;0.70;;;12.70;99.90;;;;;;4962091;28;20402;-77
2023/04/10 11:08:32;;;;;;;0.93;0.60;;;12.70;99.90;;;;;;4994695;28;20471;-77
2023/04/10 11:11:06;;;;;;;0.80;0.50;;;12.60;99.90;;;;;;4988867;28;20050;-77
2023/04/10 11:13:33;;;;;;;1.05;0.85;;;12.50;99.90;;;;;;4991689;28;20069;-76
2023/04/10 11:16:01;;;;;;;3.78;1.10;;;12.50;99.90;;;;;;4992149;28;20041;-77
2023/04/10 11:18:43;;;;;;;2.55;1.48;;;12.50;99.90;;;;;;4988109;28;20051;-77
2023/04/10 11:21:11;;;;;;;1.35;0.75;;;12.50;99.90;;;;;;4995420;28;20481;-77
2023/04/10 11:23:57;;;;;;;2.42;1.10;;;12.60;99.90;;;;;;4994969;28;20064;-76
2023/04/10 11:26:40;;;;;;;2.95;1.20;;;12.60;99.90;;;;;;5002749;28;20069;-77
2023/04/10 11:29:27;;;;;;;0.77;0.60;;;12.80;99.90;;;;;;5005834;28;20046;-77
2023/04/10 11:31:54;;;;;;;0.98;0.80;;;13.10;99.90;;;;;;4989943;28;20541;-78
2023/04/10 11:34:21;;;;;;;1.50;0.88;;;13.30;99.90;;;;;;4997111;28;20061;-77
2023/04/10 11:36:48;;;;;;;1.55;0.80;;;13.50;99.90;;;;;;4996208;28;20705;-78
2023/04/10 11:39:17;;;;;;;1.55;0.90;;;13.70;99.90;;;;;;4994553;28;20058;-77
2023/04/10 11:41:51;;;;;;;2.05;1.33;;;13.80;99.90;;;;;;4980407;28;20128;-78
2023/04/10 11:44:34;;;;;;;1.05;0.93;;;13.90;99.90;;;;;;4975227;28;20072;-78
2023/04/10 11:47:01;;;;;;;2.47;1.20;;;14.00;99.90;;;;;;4990694;28;20210;-78
2023/04/10 11:49:31;;;;;;;1.90;1.10;;;14.00;99.90;;;;;;4976363;28;20142;-78
2023/04/10 11:51:58;;;;;;;1.30;0.90;;;14.00;99.90;;;;;;4976123;28;20046;-78
2023/04/10 11:54:26;;;;;;;2.10;1.20;;;14.00;99.90;;;;;;4978036;28;20145;-78
2023/04/10 11:57:08;;;;;;;3.95;1.33;;;13.90;99.90;;;;;;4979945;28;20723;-78
2023/04/10 11:59:35;;;;;;;2.10;1.10;;;13.90;99.90;;;;;;4994933;28;20462;-78
2023/04/10 12:02:13;;;;;;;1.63;0.90;;;14.00;99.90;;;;;;4978320;28;20194;-78
2023/04/10 12:04:41;;;;;;;2.05;1.05;;;14.00;99.90;;;;;;4969328;28;20081;-77
2023/04/10 12:07:08;;;;;;;4.20;1.60;;;14.10;99.90;;;;;;5002301;28;20580;-77
2023/04/10 12:09:35;;;;;;;2.08;0.85;;;14.20;99.90;;;;;;4979428;28;20088;-78
2023/04/10 12:12:03;;;;;;;3.75;1.30;;;14.40;99.90;;;;;;4980136;28;20129;-79
2023/04/10 12:14:40;;;;;;;4.90;1.25;;;14.50;99.90;;;;;;4978910;28;20057;-77
2023/04/10 12:17:08;;;;;;;3.40;1.80;;;14.50;99.90;;;;;;4996526;28;20158;-77
2023/04/10 12:19:35;;;;;;;2.20;1.20;;;14.50;99.90;;;;;;4978871;28;20218;-78
2023/04/10 12:22:02;;;;;;;2.67;1.75;;;14.70;99.90;;;;;;4975378;28;20053;-77
2023/04/10 12:24:49;;;;;;;7.07;2.97;;;14.70;99.90;;;;;;4993552;28;20058;-76
2023/04/10 12:27:19;;;;;;;3.45;1.50;;;14.80;99.90;;;;;;4978587;28;20085;-77
2023/04/10 12:29:46;;;;;;;2.95;1.70;;;14.80;99.90;;;;;;4990089;28;20133;-79
2023/04/10 12:32:13;;;;;;;5.18;1.90;;;14.80;99.90;;;;;;4993876;28;20502;-79
2023/04/10 12:34:40;;;;;;;5.18;1.85;;;15.20;99.90;;;;;;4989519;28;20058;-80
2023/04/10 12:37:08;;;;;;;3.30;1.45;;;15.40;99.90;;;;;;4993782;28;20156;-82
2023/04/10 12:39:35;;;;;;;3.75;1.70;;;15.50;99.90;;;;;;4975745;28;20065;-81
2023/04/10 12:42:21;;;;;;;5.40;2.67;;;15.80;99.90;;;;;;4974445;28;20053;-81
2023/04/10 12:44:50;;;;;;;4.28;2.30;;;16.10;99.90;;;;;;4993299;28;20141;-82
2023/04/10 12:47:17;;;;;;;5.95;1.85;;;16.30;99.90;;;;;;4994084;28;20082;-81
2023/04/10 12:50:11;;;;;;;5.05;2.65;;;16.60;99.90;;;;;;4996881;28;20053;-82
2023/04/10 12:52:41;;;;;;;4.07;1.83;;;16.90;99.90;;;;;;4978849;28;20128;-82
2023/04/10 12:55:18;;;;;;;4.45;2.08;;;17.00;99.90;;;;;;5002173;28;20160;-82
2023/04/10 12:57:48;;;;;;;3.50;1.98;;;17.10;99.90;;;;;;4972722;28;20054;-80
2023/04/10 13:00:16;;;;;;;4.85;2.00;;;17.40;99.90;;;;;;4991136;28;20108;-81